sensor_id;sensor_type;location;lat;lon;timestamp;P1;durP1;ratioP1;P2;durP2;ratioP2
41921;SDS011;27609;51.002;5.354;2023-03-18T00:02:16;14.80;;;7.80;;
41921;SDS011;27609;51.002;5.354;2023-03-18T00:04:43;13.15;;;8.20;;
41921;SDS011;27609;51.002;5.354;2023-03-18T00:07:09;19.60;;;9.48;;
41921;SDS011;27609;51.002;5.354;2023-03-18T00:09:35;12.43;;;8.48;;
41921;SDS011;27609;51.002;5.354;2023-03-18T00:12:01;20.30;;;9.10;;
41921;SDS011;27609;51.002;5.354;2023-03-18T00:14:28;15.13;;;8.07;;
41921;SDS011;27609;51.002;5.354;2023-03-18T00:16:54;21.65;;;9.90;;
41921;SDS011;27609;51.002;5.354;2023-03-18T00:19:20;20.52;;;9.52;;
41921;SDS011;27609;51.002;5.354;2023-03-18T00:21:46;17.92;;;10.77;;
41921;SDS011;27609;51.002;5.354;2023-03-18T00:24:11;22.73;;;12.00;;
41921;SDS011;27609;51.002;5.354;2023-03-18T00:26:37;23.67;;;13.20;;
41921;SDS011;27609;51.002;5.354;2023-03-18T00:29:03;29.20;;;14.95;;
41921;SDS011;27609;51.002;5.354;2023-03-18T00:31:29;28.83;;;14.20;;
41921;SDS011;27609;51.002;5.354;2023-03-18T00:33:55;22.15;;;14.15;;
41921;SDS011;27609;51.002;5.354;2023-03-18T00:36:21;29.48;;;16.15;;
41921;SDS011;27609;51.002;5.354;2023-03-18T00:38:50;34.83;;;17.70;;
41921;SDS011;27609;51.002;5.354;2023-03-18T00:41:21;27.48;;;17.02;;
41921;SDS011;27609;51.002;5.354;2023-03-18T00:43:50;34.17;;;17.70;;
41921;SDS011;27609;51.002;5.354;2023-03-18T00:46:19;30.67;;;19.27;;
41921;SDS011;27609;51.002;5.354;2023-03-18T00:48:50;32.72;;;17.67;;
41921;SDS011;27609;51.002;5.354;2023-03-18T00:51:17;31.70;;;17.13;;
41921;SDS011;27609;51.002;5.354;2023-03-18T00:53:46;25.15;;;15.55;;
41921;SDS011;27609;51.002;5.354;2023-03-18T00:56:14;27.25;;;15.93;;
41921;SDS011;27609;51.002;5.354;2023-03-18T00:58:42;22.33;;;15.90;;
41921;SDS011;27609;51.002;5.354;2023-03-18T01:01:09;29.13;;;14.88;;
41921;SDS011;27609;51.002;5.354;2023-03-18T01:03:36;23.85;;;15.75;;
41921;SDS011;27609;51.002;5.354;2023-03-18T01:06:03;28.50;;;16.02;;
41921;SDS011;27609;51.002;5.354;2023-03-18T01:08:29;34.47;;;16.92;;
41921;SDS011;27609;51.002;5.354;2023-03-18T01:10:55;24.42;;;15.65;;
41921;SDS011;27609;51.002;5.354;2023-03-18T01:13:22;24.60;;;15.63;;
41921;SDS011;27609;51.002;5.354;2023-03-18T01:15:51;24.55;;;15.23;;
41921;SDS011;27609;51.002;5.354;2023-03-18T01:18:16;26.08;;;15.32;;
41921;SDS011;27609;51.002;5.354;2023-03-18T01:20:42;25.73;;;16.27;;
41921;SDS011;27609;51.002;5.354;2023-03-18T01:23:09;28.60;;;17.00;;
41921;SDS011;27609;51.002;5.354;2023-03-18T01:25:35;28.27;;;16.52;;
41921;SDS011;27609;51.002;5.354;2023-03-18T01:28:02;27.02;;;15.65;;
41921;SDS011;27609;51.002;5.354;2023-03-18T01:30:29;35.75;;;18.48;;
41921;SDS011;27609;51.002;5.354;2023-03-18T01:32:55;26.05;;;16.65;;
41921;SDS011;27609;51.002;5.354;2023-03-18T01:35:21;32.67;;;17.08;;
41921;SDS011;27609;51.002;5.354;2023-03-18T01:37:48;27.48;;;17.75;;
41921;SDS011;27609;51.002;5.354;2023-03-18T01:40:14;27.95;;;18.00;;
41921;SDS011;27609;51.002;5.354;2023-03-18T01:42:40;26.90;;;17.27;;
41921;SDS011;27609;51.002;5.354;2023-03-18T01:45:15;27.15;;;17.23;;
41921;SDS011;27609;51.002;5.354;2023-03-18T01:47:49;29.48;;;17.20;;
41921;SDS011;27609;51.002;5.354;2023-03-18T01:50:17;33.85;;;17.27;;
41921;SDS011;27609;51.002;5.354;2023-03-18T01:52:46;30.65;;;17.60;;
41921;SDS011;27609;51.002;5.354;2023-03-18T01:55:19;29.90;;;18.55;;
41921;SDS011;27609;51.002;5.354;2023-03-18T01:57:48;26.08;;;17.92;;
41921;SDS011;27609;51.002;5.354;2023-03-18T02:00:14;25.48;;;16.98;;
41921;SDS011;27609;51.002;5.354;2023-03-18T02:02:42;25.80;;;17.83;;
41921;SDS011;27609;51.002;5.354;2023-03-18T02:05:10;28.65;;;17.58;;
41921;SDS011;27609;51.002;5.354;2023-03-18T02:07:40;29.15;;;17.17;;
41921;SDS011;27609;51.002;5.354;2023-03-18T02:10:17;25.10;;;15.73;;
41921;SDS011;27609;51.002;5.354;2023-03-18T02:12:47;27.52;;;15.98;;
41921;SDS011;27609;51.002;5.354;2023-03-18T02:17:47;33.10;;;16.67;;
41921;SDS011;27609;51.002;5.354;2023-03-18T02:20:37;26.55;;;16.77;;
41921;SDS011;27609;51.002;5.354;2023-03-18T02:23:23;27.48;;;16.05;;
41921;SDS011;27609;51.002;5.354;2023-03-18T02:26:15;31.90;;;17.52;;
41921;SDS011;27609;51.002;5.354;2023-03-18T02:29:07;25.65;;;15.15;;
41921;SDS011;27609;51.002;5.354;2023-03-18T02:31:37;30.15;;;17.83;;
41921;SDS011;27609;51.002;5.354;2023-03-18T02:34:04;31.88;;;17.92;;
41921;SDS011;27609;51.002;5.354;2023-03-18T02:36:31;34.10;;;17.40;;
41921;SDS011;27609;51.002;5.354;2023-03-18T02:38:59;23.88;;;16.27;;
41921;SDS011;27609;51.002;5.354;2023-03-18T02:41:26;32.35;;;17.45;;
41921;SDS011;27609;51.002;5.354;2023-03-18T02:43:55;40.00;;;16.63;;
41921;SDS011;27609;51.002;5.354;2023-03-18T02:49:11;26.75;;;17.30;;
41921;SDS011;27609;51.002;5.354;2023-03-18T02:51:38;33.40;;;18.48;;
41921;SDS011;27609;51.002;5.354;2023-03-18T02:54:05;27.40;;;17.63;;
41921;SDS011;27609;51.002;5.354;2023-03-18T02:56:38;28.70;;;17.20;;
41921;SDS011;27609;51.002;5.354;2023-03-18T02:59:06;27.17;;;16.95;;
41921;SDS011;27609;51.002;5.354;2023-03-18T03:01:32;24.25;;;16.55;;
41921;SDS011;27609;51.002;5.354;2023-03-18T03:04:00;27.73;;;17.13;;
41921;SDS011;27609;51.002;5.354;2023-03-18T03:06:27;33.90;;;17.45;;
41921;SDS011;27609;51.002;5.354;2023-03-18T03:08:53;31.17;;;18.38;;
41921;SDS011;27609;51.002;5.354;2023-03-18T03:11:19;27.33;;;16.48;;
41921;SDS011;27609;51.002;5.354;2023-03-18T03:13:45;31.23;;;17.25;;
41921;SDS011;27609;51.002;5.354;2023-03-18T03:16:12;27.67;;;16.25;;
41921;SDS011;27609;51.002;5.354;2023-03-18T03:18:39;28.42;;;17.25;;
41921;SDS011;27609;51.002;5.354;2023-03-18T03:21:06;33.08;;;18.33;;
41921;SDS011;27609;51.002;5.354;2023-03-18T03:23:32;28.27;;;17.73;;
41921;SDS011;27609;51.002;5.354;2023-03-18T03:25:59;26.73;;;17.63;;
41921;SDS011;27609;51.002;5.354;2023-03-18T03:28:24;27.40;;;18.25;;
41921;SDS011;27609;51.002;5.354;2023-03-18T03:30:51;29.38;;;17.15;;
41921;SDS011;27609;51.002;5.354;2023-03-18T03:33:17;29.63;;;18.48;;
41921;SDS011;27609;51.002;5.354;2023-03-18T03:35:42;36.50;;;19.20;;
41921;SDS011;27609;51.002;5.354;2023-03-18T03:38:08;34.30;;;18.83;;
41921;SDS011;27609;51.002;5.354;2023-03-18T03:40:34;35.80;;;19.38;;
41921;SDS011;27609;51.002;5.354;2023-03-18T03:43:00;32.90;;;19.67;;
41921;SDS011;27609;51.002;5.354;2023-03-18T03:45:26;39.00;;;22.88;;
41921;SDS011;27609;51.002;5.354;2023-03-18T03:47:53;33.03;;;21.60;;
41921;SDS011;27609;51.002;5.354;2023-03-18T03:50:18;32.55;;;20.55;;
41921;SDS011;27609;51.002;5.354;2023-03-18T03:52:45;32.58;;;19.90;;
41921;SDS011;27609;51.002;5.354;2023-03-18T03:55:13;30.70;;;18.63;;
41921;SDS011;27609;51.002;5.354;2023-03-18T03:57:41;27.45;;;17.65;;
41921;SDS011;27609;51.002;5.354;2023-03-18T04:00:08;30.08;;;16.20;;
41921;SDS011;27609;51.002;5.354;2023-03-18T04:02:37;26.10;;;16.38;;
41921;SDS011;27609;51.002;5.354;2023-03-18T04:05:05;27.60;;;15.85;;
41921;SDS011;27609;51.002;5.354;2023-03-18T04:07:31;25.75;;;15.93;;
41921;SDS011;27609;51.002;5.354;2023-03-18T04:09:57;23.17;;;15.32;;
41921;SDS011;27609;51.002;5.354;2023-03-18T04:12:23;25.30;;;16.33;;
41921;SDS011;27609;51.002;5.354;2023-03-18T04:14:48;31.92;;;15.77;;
41921;SDS011;27609;51.002;5.354;2023-03-18T04:17:14;22.65;;;15.75;;
41921;SDS011;27609;51.002;5.354;2023-03-18T04:19:40;27.48;;;16.25;;
41921;SDS011;27609;51.002;5.354;2023-03-18T04:22:06;26.05;;;15.43;;
41921;SDS011;27609;51.002;5.354;2023-03-18T04:24:32;24.48;;;16.23;;
41921;SDS011;27609;51.002;5.354;2023-03-18T04:26:58;29.25;;;16.33;;
41921;SDS011;27609;51.002;5.354;2023-03-18T04:29:23;26.77;;;16.02;;
41921;SDS011;27609;51.002;5.354;2023-03-18T04:31:49;26.80;;;16.42;;
41921;SDS011;27609;51.002;5.354;2023-03-18T04:34:15;29.20;;;16.50;;
41921;SDS011;27609;51.002;5.354;2023-03-18T04:36:41;28.85;;;16.83;;
41921;SDS011;27609;51.002;5.354;2023-03-18T04:39:07;27.88;;;15.48;;
41921;SDS011;27609;51.002;5.354;2023-03-18T04:41:33;24.55;;;14.55;;
41921;SDS011;27609;51.002;5.354;2023-03-18T04:44:01;29.95;;;15.13;;
41921;SDS011;27609;51.002;5.354;2023-03-18T04:46:27;24.05;;;16.60;;
41921;SDS011;27609;51.002;5.354;2023-03-18T04:48:54;26.80;;;17.70;;
41921;SDS011;27609;51.002;5.354;2023-03-18T04:51:20;26.25;;;16.55;;
41921;SDS011;27609;51.002;5.354;2023-03-18T04:53:45;23.17;;;15.15;;
41921;SDS011;27609;51.002;5.354;2023-03-18T04:56:11;27.13;;;17.67;;
41921;SDS011;27609;51.002;5.354;2023-03-18T04:58:37;26.55;;;17.83;;
41921;SDS011;27609;51.002;5.354;2023-03-18T05:01:03;26.65;;;17.92;;
41921;SDS011;27609;51.002;5.354;2023-03-18T05:03:29;23.48;;;16.40;;
41921;SDS011;27609;51.002;5.354;2023-03-18T05:05:55;29.48;;;16.88;;
41921;SDS011;27609;51.002;5.354;2023-03-18T05:08:21;30.77;;;17.75;;
41921;SDS011;27609;51.002;5.354;2023-03-18T05:10:48;33.72;;;18.02;;
41921;SDS011;27609;51.002;5.354;2023-03-18T05:13:14;28.58;;;17.77;;
41921;SDS011;27609;51.002;5.354;2023-03-18T05:15:40;24.63;;;16.92;;
41921;SDS011;27609;51.002;5.354;2023-03-18T05:18:06;29.13;;;18.40;;
41921;SDS011;27609;51.002;5.354;2023-03-18T05:20:32;29.15;;;18.17;;
41921;SDS011;27609;51.002;5.354;2023-03-18T05:22:58;29.55;;;19.38;;
41921;SDS011;27609;51.002;5.354;2023-03-18T05:25:24;31.20;;;18.98;;
41921;SDS011;27609;51.002;5.354;2023-03-18T05:27:50;29.92;;;19.27;;
41921;SDS011;27609;51.002;5.354;2023-03-18T05:30:16;26.27;;;18.58;;
41921;SDS011;27609;51.002;5.354;2023-03-18T05:32:43;26.08;;;17.55;;
41921;SDS011;27609;51.002;5.354;2023-03-18T05:35:09;29.05;;;18.52;;
41921;SDS011;27609;51.002;5.354;2023-03-18T05:37:35;28.95;;;18.58;;
41921;SDS011;27609;51.002;5.354;2023-03-18T05:40:01;32.28;;;20.48;;
41921;SDS011;27609;51.002;5.354;2023-03-18T05:42:28;28.33;;;18.35;;
41921;SDS011;27609;51.002;5.354;2023-03-18T05:44:53;34.10;;;20.08;;
41921;SDS011;27609;51.002;5.354;2023-03-18T05:47:20;33.05;;;20.00;;
41921;SDS011;27609;51.002;5.354;2023-03-18T05:49:46;31.15;;;20.50;;
41921;SDS011;27609;51.002;5.354;2023-03-18T05:52:12;35.22;;;22.02;;
41921;SDS011;27609;51.002;5.354;2023-03-18T05:54:40;30.35;;;21.65;;
41921;SDS011;27609;51.002;5.354;2023-03-18T05:57:06;37.22;;;22.00;;
41921;SDS011;27609;51.002;5.354;2023-03-18T05:59:33;33.38;;;20.65;;
41921;SDS011;27609;51.002;5.354;2023-03-18T06:01:58;28.30;;;18.88;;
41921;SDS011;27609;51.002;5.354;2023-03-18T06:04:24;28.15;;;19.27;;
41921;SDS011;27609;51.002;5.354;2023-03-18T06:06:51;29.58;;;19.73;;
41921;SDS011;27609;51.002;5.354;2023-03-18T06:09:17;28.63;;;20.17;;
41921;SDS011;27609;51.002;5.354;2023-03-18T06:11:43;28.75;;;17.92;;
41921;SDS011;27609;51.002;5.354;2023-03-18T06:14:09;26.15;;;18.63;;
41921;SDS011;27609;51.002;5.354;2023-03-18T06:16:35;31.80;;;19.80;;
41921;SDS011;27609;51.002;5.354;2023-03-18T06:19:02;32.40;;;20.80;;
41921;SDS011;27609;51.002;5.354;2023-03-18T06:21:28;29.35;;;19.08;;
41921;SDS011;27609;51.002;5.354;2023-03-18T06:23:55;28.42;;;19.05;;
41921;SDS011;27609;51.002;5.354;2023-03-18T06:26:21;30.40;;;18.83;;
41921;SDS011;27609;51.002;5.354;2023-03-18T06:28:47;22.35;;;16.85;;
41921;SDS011;27609;51.002;5.354;2023-03-18T06:31:12;23.23;;;16.83;;
41921;SDS011;27609;51.002;5.354;2023-03-18T06:33:38;23.17;;;16.65;;
41921;SDS011;27609;51.002;5.354;2023-03-18T06:36:04;25.80;;;15.27;;
41921;SDS011;27609;51.002;5.354;2023-03-18T06:38:31;30.45;;;16.33;;
41921;SDS011;27609;51.002;5.354;2023-03-18T06:40:57;28.13;;;16.20;;
41921;SDS011;27609;51.002;5.354;2023-03-18T06:43:23;25.75;;;16.63;;
41921;SDS011;27609;51.002;5.354;2023-03-18T06:45:51;23.67;;;16.50;;
41921;SDS011;27609;51.002;5.354;2023-03-18T06:48:16;23.08;;;16.10;;
41921;SDS011;27609;51.002;5.354;2023-03-18T06:50:43;19.00;;;14.02;;
41921;SDS011;27609;51.002;5.354;2023-03-18T06:53:09;22.25;;;15.18;;
41921;SDS011;27609;51.002;5.354;2023-03-18T06:55:35;20.38;;;14.15;;
41921;SDS011;27609;51.002;5.354;2023-03-18T06:58:02;19.60;;;13.70;;
41921;SDS011;27609;51.002;5.354;2023-03-18T07:00:29;22.90;;;14.07;;
41921;SDS011;27609;51.002;5.354;2023-03-18T07:02:55;15.65;;;11.57;;
41921;SDS011;27609;51.002;5.354;2023-03-18T07:05:21;19.45;;;13.35;;
41921;SDS011;27609;51.002;5.354;2023-03-18T07:07:47;18.70;;;12.00;;
41921;SDS011;27609;51.002;5.354;2023-03-18T07:10:20;17.25;;;11.30;;
41921;SDS011;27609;51.002;5.354;2023-03-18T07:12:48;15.43;;;10.90;;
41921;SDS011;27609;51.002;5.354;2023-03-18T07:15:15;18.48;;;10.13;;
41921;SDS011;27609;51.002;5.354;2023-03-18T07:17:41;12.23;;;9.65;;
41921;SDS011;27609;51.002;5.354;2023-03-18T07:20:09;12.38;;;8.23;;
41921;SDS011;27609;51.002;5.354;2023-03-18T07:22:35;16.98;;;8.85;;
41921;SDS011;27609;51.002;5.354;2023-03-18T07:25:01;12.35;;;8.52;;
41921;SDS011;27609;51.002;5.354;2023-03-18T07:27:27;10.50;;;8.18;;
41921;SDS011;27609;51.002;5.354;2023-03-18T07:29:53;13.93;;;8.30;;
41921;SDS011;27609;51.002;5.354;2023-03-18T07:32:19;11.43;;;7.65;;
41921;SDS011;27609;51.002;5.354;2023-03-18T07:34:45;14.05;;;8.60;;
41921;SDS011;27609;51.002;5.354;2023-03-18T07:37:12;10.48;;;8.55;;
41921;SDS011;27609;51.002;5.354;2023-03-18T07:39:38;15.15;;;8.90;;
41921;SDS011;27609;51.002;5.354;2023-03-18T07:42:04;14.23;;;8.93;;
41921;SDS011;27609;51.002;5.354;2023-03-18T07:44:30;14.13;;;8.70;;
41921;SDS011;27609;51.002;5.354;2023-03-18T07:46:56;14.23;;;8.65;;
41921;SDS011;27609;51.002;5.354;2023-03-18T07:49:22;11.65;;;8.52;;
41921;SDS011;27609;51.002;5.354;2023-03-18T07:51:48;14.45;;;9.18;;
41921;SDS011;27609;51.002;5.354;2023-03-18T07:54:14;10.50;;;8.98;;
41921;SDS011;27609;51.002;5.354;2023-03-18T07:56:41;14.82;;;9.05;;
41921;SDS011;27609;51.002;5.354;2023-03-18T07:59:06;11.38;;;8.32;;
41921;SDS011;27609;51.002;5.354;2023-03-18T08:01:34;13.00;;;8.20;;
41921;SDS011;27609;51.002;5.354;2023-03-18T08:03:59;11.27;;;8.75;;
41921;SDS011;27609;51.002;5.354;2023-03-18T08:06:25;10.93;;;8.70;;
41921;SDS011;27609;51.002;5.354;2023-03-18T08:08:51;12.07;;;7.55;;
41921;SDS011;27609;51.002;5.354;2023-03-18T08:11:16;9.45;;;7.05;;
41921;SDS011;27609;51.002;5.354;2023-03-18T08:13:42;11.20;;;7.43;;
41921;SDS011;27609;51.002;5.354;2023-03-18T08:16:08;13.05;;;7.18;;
41921;SDS011;27609;51.002;5.354;2023-03-18T08:18:34;11.52;;;7.80;;
41921;SDS011;27609;51.002;5.354;2023-03-18T08:21:00;9.57;;;6.70;;
41921;SDS011;27609;51.002;5.354;2023-03-18T08:23:26;10.15;;;6.22;;
41921;SDS011;27609;51.002;5.354;2023-03-18T08:25:52;10.88;;;6.22;;
41921;SDS011;27609;51.002;5.354;2023-03-18T08:28:18;8.07;;;5.80;;
41921;SDS011;27609;51.002;5.354;2023-03-18T08:30:44;8.45;;;5.70;;
41921;SDS011;27609;51.002;5.354;2023-03-18T08:33:10;8.07;;;5.30;;
41921;SDS011;27609;51.002;5.354;2023-03-18T08:35:38;7.43;;;5.10;;
41921;SDS011;27609;51.002;5.354;2023-03-18T08:38:05;6.38;;;5.07;;
41921;SDS011;27609;51.002;5.354;2023-03-18T08:40:31;9.80;;;5.45;;
41921;SDS011;27609;51.002;5.354;2023-03-18T08:42:58;7.68;;;5.70;;
41921;SDS011;27609;51.002;5.354;2023-03-18T08:45:24;11.48;;;6.10;;
41921;SDS011;27609;51.002;5.354;2023-03-18T08:47:52;7.45;;;5.28;;
41921;SDS011;27609;51.002;5.354;2023-03-18T08:50:19;7.85;;;5.55;;
41921;SDS011;27609;51.002;5.354;2023-03-18T08:52:44;7.32;;;5.05;;
41921;SDS011;27609;51.002;5.354;2023-03-18T08:55:11;7.72;;;5.32;;
41921;SDS011;27609;51.002;5.354;2023-03-18T08:57:36;7.63;;;5.05;;
41921;SDS011;27609;51.002;5.354;2023-03-18T09:00:03;8.68;;;4.57;;
41921;SDS011;27609;51.002;5.354;2023-03-18T09:02:29;8.40;;;5.35;;
41921;SDS011;27609;51.002;5.354;2023-03-18T09:04:55;6.47;;;4.53;;
41921;SDS011;27609;51.002;5.354;2023-03-18T09:07:21;7.65;;;4.90;;
41921;SDS011;27609;51.002;5.354;2023-03-18T09:09:47;9.00;;;4.43;;
41921;SDS011;27609;51.002;5.354;2023-03-18T09:12:12;6.85;;;4.22;;
41921;SDS011;27609;51.002;5.354;2023-03-18T09:14:41;7.13;;;3.80;;
41921;SDS011;27609;51.002;5.354;2023-03-18T09:17:07;7.03;;;4.32;;
41921;SDS011;27609;51.002;5.354;2023-03-18T09:19:33;6.10;;;3.53;;
41921;SDS011;27609;51.002;5.354;2023-03-18T09:21:59;4.82;;;3.65;;
41921;SDS011;27609;51.002;5.354;2023-03-18T09:24:25;8.25;;;4.05;;
41921;SDS011;27609;51.002;5.354;2023-03-18T09:26:51;5.38;;;3.35;;
41921;SDS011;27609;51.002;5.354;2023-03-18T09:29:16;7.07;;;3.75;;
41921;SDS011;27609;51.002;5.354;2023-03-18T09:31:42;5.97;;;3.33;;
41921;SDS011;27609;51.002;5.354;2023-03-18T09:34:09;8.93;;;3.42;;
41921;SDS011;27609;51.002;5.354;2023-03-18T09:36:37;9.18;;;3.25;;
41921;SDS011;27609;51.002;5.354;2023-03-18T09:39:03;6.13;;;3.47;;
41921;SDS011;27609;51.002;5.354;2023-03-18T09:44:22;2.70;;;2.50;;
41921;SDS011;27609;51.002;5.354;2023-03-18T09:52:40;4.63;;;2.47;;
41921;SDS011;27609;51.002;5.354;2023-03-18T09:55:26;3.38;;;2.50;;
41921;SDS011;27609;51.002;5.354;2023-03-18T09:58:00;4.38;;;2.65;;
41921;SDS011;27609;51.002;5.354;2023-03-18T10:00:33;3.85;;;2.50;;
41921;SDS011;27609;51.002;5.354;2023-03-18T10:05:34;4.57;;;2.28;;
41921;SDS011;27609;51.002;5.354;2023-03-18T10:10:49;5.15;;;2.78;;
41921;SDS011;27609;51.002;5.354;2023-03-18T10:13:20;6.18;;;2.78;;
41921;SDS011;27609;51.002;5.354;2023-03-18T10:15:53;5.05;;;3.08;;
41921;SDS011;27609;51.002;5.354;2023-03-18T10:18:24;8.43;;;3.28;;
41921;SDS011;27609;51.002;5.354;2023-03-18T10:26:36;3.35;;;2.55;;
41921;SDS011;27609;51.002;5.354;2023-03-18T10:40:39;3.03;;;2.10;;
41921;SDS011;27609;51.002;5.354;2023-03-18T10:43:17;4.20;;;2.05;;
41921;SDS011;27609;51.002;5.354;2023-03-18T10:45:50;4.43;;;2.03;;
41921;SDS011;27609;51.002;5.354;2023-03-18T10:48:41;4.85;;;1.88;;
41921;SDS011;27609;51.002;5.354;2023-03-18T10:51:20;5.10;;;2.05;;
41921;SDS011;27609;51.002;5.354;2023-03-18T10:56:39;6.03;;;1.83;;
41921;SDS011;27609;51.002;5.354;2023-03-18T10:59:12;3.47;;;1.83;;
41921;SDS011;27609;51.002;5.354;2023-03-18T11:01:40;2.40;;;1.95;;
41921;SDS011;27609;51.002;5.354;2023-03-18T11:04:14;3.22;;;1.42;;
41921;SDS011;27609;51.002;5.354;2023-03-18T11:06:47;2.83;;;1.70;;
41921;SDS011;27609;51.002;5.354;2023-03-18T11:09:18;3.97;;;1.80;;
41921;SDS011;27609;51.002;5.354;2023-03-18T11:11:47;2.95;;;1.58;;
41921;SDS011;27609;51.002;5.354;2023-03-18T11:14:17;2.58;;;1.77;;
41921;SDS011;27609;51.002;5.354;2023-03-18T11:16:50;3.53;;;1.98;;
41921;SDS011;27609;51.002;5.354;2023-03-18T11:19:26;3.55;;;1.60;;
41921;SDS011;27609;51.002;5.354;2023-03-18T11:22:00;6.60;;;2.10;;
41921;SDS011;27609;51.002;5.354;2023-03-18T11:24:31;3.00;;;1.65;;
41921;SDS011;27609;51.002;5.354;2023-03-18T11:27:03;3.72;;;1.70;;
41921;SDS011;27609;51.002;5.354;2023-03-18T11:32:27;3.75;;;1.70;;
41921;SDS011;27609;51.002;5.354;2023-03-18T11:34:58;3.45;;;2.08;;
41921;SDS011;27609;51.002;5.354;2023-03-18T11:37:29;4.53;;;1.90;;
41921;SDS011;27609;51.002;5.354;2023-03-18T11:42:38;5.50;;;2.20;;
41921;SDS011;27609;51.002;5.354;2023-03-18T11:48:02;2.08;;;1.77;;
41921;SDS011;27609;51.002;5.354;2023-03-18T11:50:38;5.15;;;1.83;;
41921;SDS011;27609;51.002;5.354;2023-03-18T11:53:15;4.05;;;1.65;;
41921;SDS011;27609;51.002;5.354;2023-03-18T11:56:10;3.38;;;1.40;;
41921;SDS011;27609;51.002;5.354;2023-03-18T12:10:23;3.47;;;2.05;;
41921;SDS011;27609;51.002;5.354;2023-03-18T12:21:29;4.80;;;1.83;;
41921;SDS011;27609;51.002;5.354;2023-03-18T12:26:33;7.22;;;2.00;;
41921;SDS011;27609;51.002;5.354;2023-03-18T12:35:02;5.38;;;1.98;;
41921;SDS011;27609;51.002;5.354;2023-03-18T12:43:23;4.35;;;2.15;;
41921;SDS011;27609;51.002;5.354;2023-03-18T12:46:03;2.53;;;1.83;;
41921;SDS011;27609;51.002;5.354;2023-03-18T12:49:21;3.85;;;2.22;;
41921;SDS011;27609;51.002;5.354;2023-03-18T12:55:14;4.90;;;2.10;;
41921;SDS011;27609;51.002;5.354;2023-03-18T13:00:19;3.08;;;1.90;;
41921;SDS011;27609;51.002;5.354;2023-03-18T13:03:01;7.20;;;2.50;;
41921;SDS011;27609;51.002;5.354;2023-03-18T13:05:59;5.85;;;2.10;;
41921;SDS011;27609;51.002;5.354;2023-03-18T13:11:25;4.50;;;2.83;;
41921;SDS011;27609;51.002;5.354;2023-03-18T13:14:20;6.25;;;1.85;;
41921;SDS011;27609;51.002;5.354;2023-03-18T13:16:48;5.60;;;2.63;;
41921;SDS011;27609;51.002;5.354;2023-03-18T13:19:15;4.93;;;2.45;;
41921;SDS011;27609;51.002;5.354;2023-03-18T13:21:43;7.72;;;2.13;;
41921;SDS011;27609;51.002;5.354;2023-03-18T13:24:30;5.70;;;2.22;;
41921;SDS011;27609;51.002;5.354;2023-03-18T13:27:22;4.18;;;2.10;;
41921;SDS011;27609;51.002;5.354;2023-03-18T13:43:37;4.68;;;2.25;;
41921;SDS011;27609;51.002;5.354;2023-03-18T13:46:17;4.38;;;1.90;;
41921;SDS011;27609;51.002;5.354;2023-03-18T13:48:46;5.80;;;1.77;;
41921;SDS011;27609;51.002;5.354;2023-03-18T13:54:04;2.40;;;1.30;;
41921;SDS011;27609;51.002;5.354;2023-03-18T14:05:02;3.88;;;1.42;;
41921;SDS011;27609;51.002;5.354;2023-03-18T14:07:57;3.97;;;1.10;;
41921;SDS011;27609;51.002;5.354;2023-03-18T14:10:27;1.17;;;1.08;;
41921;SDS011;27609;51.002;5.354;2023-03-18T14:12:52;1.63;;;1.30;;
41921;SDS011;27609;51.002;5.354;2023-03-18T14:15:34;2.22;;;1.20;;
41921;SDS011;27609;51.002;5.354;2023-03-18T14:18:18;2.33;;;1.15;;
41921;SDS011;27609;51.002;5.354;2023-03-18T14:23:24;3.00;;;1.10;;
41921;SDS011;27609;51.002;5.354;2023-03-18T14:26:03;7.65;;;1.23;;
41921;SDS011;27609;51.002;5.354;2023-03-18T14:28:36;3.63;;;0.90;;
41921;SDS011;27609;51.002;5.354;2023-03-18T14:31:18;2.67;;;1.15;;
41921;SDS011;27609;51.002;5.354;2023-03-18T14:33:52;1.88;;;1.20;;
41921;SDS011;27609;51.002;5.354;2023-03-18T14:39:07;1.58;;;1.00;;
41921;SDS011;27609;51.002;5.354;2023-03-18T14:41:40;2.58;;;0.98;;
41921;SDS011;27609;51.002;5.354;2023-03-18T14:44:21;3.10;;;1.13;;
41921;SDS011;27609;51.002;5.354;2023-03-18T14:47:02;3.38;;;1.55;;
41921;SDS011;27609;51.002;5.354;2023-03-18T14:49:43;3.05;;;1.25;;
41921;SDS011;27609;51.002;5.354;2023-03-18T14:52:16;0.90;;;0.80;;
41921;SDS011;27609;51.002;5.354;2023-03-18T14:54:56;5.28;;;1.30;;
41921;SDS011;27609;51.002;5.354;2023-03-18T14:57:25;1.63;;;1.02;;
41921;SDS011;27609;51.002;5.354;2023-03-18T14:59:51;2.75;;;1.15;;
41921;SDS011;27609;51.002;5.354;2023-03-18T15:02:25;1.73;;;0.90;;
41921;SDS011;27609;51.002;5.354;2023-03-18T15:05:03;4.72;;;1.10;;
41921;SDS011;27609;51.002;5.354;2023-03-18T15:07:34;5.65;;;1.35;;
41921;SDS011;27609;51.002;5.354;2023-03-18T15:10:44;2.45;;;1.10;;
41921;SDS011;27609;51.002;5.354;2023-03-18T15:13:00;3.00;;;1.20;;
41921;SDS011;27609;51.002;5.354;2023-03-18T15:15:31;5.20;;;1.58;;
41921;SDS011;27609;51.002;5.354;2023-03-18T15:18:01;2.88;;;1.23;;
41921;SDS011;27609;51.002;5.354;2023-03-18T15:20:41;2.35;;;0.90;;
41921;SDS011;27609;51.002;5.354;2023-03-18T15:23:07;4.10;;;1.27;;
41921;SDS011;27609;51.002;5.354;2023-03-18T15:25:33;2.72;;;1.20;;
41921;SDS011;27609;51.002;5.354;2023-03-18T15:28:01;2.10;;;1.10;;
41921;SDS011;27609;51.002;5.354;2023-03-18T15:30:28;3.83;;;0.98;;
41921;SDS011;27609;51.002;5.354;2023-03-18T15:33:06;2.78;;;1.00;;
41921;SDS011;27609;51.002;5.354;2023-03-18T15:35:40;4.20;;;1.10;;
41921;SDS011;27609;51.002;5.354;2023-03-18T15:40:50;2.25;;;1.13;;
41921;SDS011;27609;51.002;5.354;2023-03-18T15:45:55;3.78;;;1.35;;
41921;SDS011;27609;51.002;5.354;2023-03-18T15:48:29;5.00;;;1.15;;
41921;SDS011;27609;51.002;5.354;2023-03-18T15:51:25;3.25;;;1.02;;
41921;SDS011;27609;51.002;5.354;2023-03-18T15:53:52;3.65;;;0.95;;
41921;SDS011;27609;51.002;5.354;2023-03-18T15:56:29;2.78;;;1.27;;
41921;SDS011;27609;51.002;5.354;2023-03-18T15:59:18;2.67;;;1.10;;
41921;SDS011;27609;51.002;5.354;2023-03-18T16:01:43;1.98;;;0.95;;
41921;SDS011;27609;51.002;5.354;2023-03-18T16:04:12;4.55;;;1.80;;
41921;SDS011;27609;51.002;5.354;2023-03-18T16:06:40;5.78;;;1.30;;
41921;SDS011;27609;51.002;5.354;2023-03-18T16:09:13;3.03;;;1.42;;
41921;SDS011;27609;51.002;5.354;2023-03-18T16:11:43;3.72;;;1.58;;
41921;SDS011;27609;51.002;5.354;2023-03-18T16:14:23;3.30;;;1.52;;
41921;SDS011;27609;51.002;5.354;2023-03-18T16:16:52;11.48;;;3.42;;
41921;SDS011;27609;51.002;5.354;2023-03-18T16:19:22;3.20;;;1.50;;
41921;SDS011;27609;51.002;5.354;2023-03-18T16:21:51;4.25;;;1.80;;
41921;SDS011;27609;51.002;5.354;2023-03-18T16:24:18;4.85;;;1.55;;
41921;SDS011;27609;51.002;5.354;2023-03-18T16:26:44;3.80;;;1.83;;
41921;SDS011;27609;51.002;5.354;2023-03-18T16:29:14;3.35;;;1.30;;
41921;SDS011;27609;51.002;5.354;2023-03-18T16:31:43;2.92;;;1.48;;
41921;SDS011;27609;51.002;5.354;2023-03-18T16:34:15;2.75;;;1.17;;
41921;SDS011;27609;51.002;5.354;2023-03-18T16:36:43;6.82;;;1.63;;
41921;SDS011;27609;51.002;5.354;2023-03-18T16:39:31;7.07;;;1.65;;
41921;SDS011;27609;51.002;5.354;2023-03-18T16:41:59;2.15;;;1.48;;
41921;SDS011;27609;51.002;5.354;2023-03-18T16:44:26;4.38;;;1.50;;
41921;SDS011;27609;51.002;5.354;2023-03-18T16:46:55;3.97;;;1.67;;
41921;SDS011;27609;51.002;5.354;2023-03-18T16:49:22;5.80;;;1.53;;
41921;SDS011;27609;51.002;5.354;2023-03-18T16:51:49;4.13;;;1.27;;
41921;SDS011;27609;51.002;5.354;2023-03-18T16:54:19;9.30;;;1.58;;